Time;durP1;ratioP1;P1;durP2;ratioP2;P2;SDS_P1;SDS_P2;PMS_P1;PMS_P2;Temp;Humidity;BMP_temperature;BMP_pressure;BME280_temperature;BME280_humidity;BME280_pressure;Samples;Min_cycle;Max_cycle;Signal;HPM_P1;HPM_P2
2020/12/29 00:00:50;;;;;;;25.52;15.95;;;;;;;6.55;70.70;98116.88;5094732;28;20028;-82
2020/12/29 00:03:17;;;;;;;28.67;17.65;;;;;;;6.54;70.85;98116.97;5094377;28;20027;-82
2020/12/29 00:05:44;;;;;;;31.08;18.92;;;;;;;6.56;70.83;98123.03;5091867;28;20177;-81
2020/12/29 00:08:10;;;;;;;34.28;18.70;;;;;;;6.54;70.73;98125.75;5094104;28;20028;-82
2020/12/29 00:10:37;;;;;;;36.70;19.98;;;;;;;6.53;70.72;98123.16;5094573;28;20024;-82
2020/12/29 00:13:03;;;;;;;36.10;19.92;;;;;;;6.54;70.72;98119.59;5094474;28;20082;-81
2020/12/29 00:15:30;;;;;;;31.13;17.95;;;;;;;6.53;70.80;98118.75;5093823;28;20492;-82
2020/12/29 00:17:56;;;;;;;37.65;19.35;;;;;;;6.55;70.53;98118.69;5094082;28;20114;-81
2020/12/29 00:20:23;;;;;;;36.00;19.92;;;;;;;6.53;70.51;98120.53;5094188;28;20032;-81
2020/12/29 00:22:49;;;;;;;36.92;19.67;;;;;;;6.50;70.48;98123.31;5094397;28;20066;-81
2020/12/29 00:25:19;;;;;;;30.85;19.15;;;;;;;6.49;70.60;98122.44;5094297;28;20077;-81
2020/12/29 00:27:45;;;;;;;31.00;18.35;;;;;;;6.48;70.61;98118.97;5093925;28;20028;-81
2020/12/29 00:30:12;;;;;;;30.42;18.92;;;;;;;6.48;70.40;98132.13;5093174;28;20097;-81
2020/12/29 00:32:39;;;;;;;36.22;20.25;;;;;;;6.45;70.62;98120.88;5094083;28;20020;-81
2020/12/29 00:35:06;;;;;;;32.20;20.35;;;;;;;6.47;70.71;98133.03;5094342;28;20115;-82
2020/12/29 00:37:33;;;;;;;32.05;18.67;;;;;;;6.48;70.84;98126.88;5093762;28;20592;-81
2020/12/29 00:39:59;;;;;;;34.03;19.75;;;;;;;6.50;70.81;98131.19;5093601;28;20119;-81
2020/12/29 00:42:26;;;;;;;32.67;19.23;;;;;;;6.50;70.75;98139.09;5094151;28;20058;-81
2020/12/29 00:44:52;;;;;;;37.53;20.35;;;;;;;6.51;70.92;98135.53;5094107;28;20024;-81
2020/12/29 00:47:19;;;;;;;35.20;20.33;;;;;;;6.49;71.08;98130.34;5094035;28;20024;-81
2020/12/29 00:49:45;;;;;;;31.38;18.80;;;;;;;6.48;71.17;98139.19;5093837;28;20333;-81
2020/12/29 00:52:12;;;;;;;30.63;18.48;;;;;;;6.48;70.98;98126.88;5094270;28;20039;-81
2020/12/29 00:54:38;;;;;;;31.90;18.52;;;;;;;6.48;71.07;98132.13;5094178;28;20115;-82
2020/12/29 00:57:05;;;;;;;29.25;17.60;;;;;;;6.50;70.77;98139.09;5093918;28;20024;-81
2020/12/29 00:59:31;;;;;;;35.63;19.45;;;;;;;6.50;70.98;98139.09;5093463;28;20047;-81
2020/12/29 01:01:58;;;;;;;35.85;19.63;;;;;;;6.46;70.76;98139.22;5094045;28;20058;-81
2020/12/29 01:04:25;;;;;;;28.42;16.92;;;;;;;6.44;70.93;98138.47;5093829;28;20027;-81
2020/12/29 01:06:52;;;;;;;28.80;17.15;;;;;;;6.43;70.89;98139.38;5093777;28;20024;-82
2020/12/29 01:09:19;;;;;;;27.10;16.13;;;;;;;6.42;71.05;98140.31;5093399;28;20050;-81
2020/12/29 01:11:45;;;;;;;30.85;16.30;;;;;;;6.40;70.79;98147.41;5093704;28;20024;-81
2020/12/29 01:14:12;;;;;;;23.50;13.75;;;;;;;6.43;70.91;98151.66;5093387;28;20387;-81
2020/12/29 01:16:39;;;;;;;25.70;14.68;;;;;;;6.44;70.89;98154.25;5093448;28;20414;-80
2020/12/29 01:19:05;;;;;;;26.13;15.98;;;;;;;6.43;70.71;98154.28;5093266;28;20036;-81
2020/12/29 01:21:31;;;;;;;26.92;15.00;;;;;;;6.38;70.77;98154.53;5093784;28;20093;-80
2020/12/29 01:23:58;;;;;;;19.27;12.90;;;;;;;6.40;70.67;98164.97;5094161;28;20028;-80
2020/12/29 01:26:25;;;;;;;18.02;11.98;;;;;;;6.40;70.82;98162.34;5093605;28;20505;-80
2020/12/29 01:28:52;;;;;;;18.73;12.10;;;;;;;6.38;70.89;98158.91;5093426;28;20058;-80
2020/12/29 01:31:33;;;;;;;18.58;12.18;;;;;;;6.44;70.56;98167.41;5093408;28;20031;-80
2020/12/29 01:34:01;;;;;;;14.98;10.63;;;;;;;6.34;70.79;98163.47;5093436;28;20028;-80
2020/12/29 01:36:28;;;;;;;16.80;11.65;;;;;;;6.35;70.60;98166.97;5093165;28;20027;-80
2020/12/29 01:38:55;;;;;;;16.42;10.40;;;;;;;6.31;70.75;98169.72;5091750;28;20029;-80
2020/12/29 01:41:23;;;;;;;15.68;10.60;;;;;;;6.31;70.75;98160.97;5094603;28;20068;-80
2020/12/29 01:43:50;;;;;;;17.58;10.40;;;;;;;6.25;70.78;98171.78;5097516;28;20098;-80
2020/12/29 01:46:21;;;;;;;17.63;11.32;;;;;;;6.24;70.59;98170.06;5097564;28;20032;-79
2020/12/29 01:48:55;;;;;;;14.45;10.52;;;;;;;6.26;70.52;98174.34;5096929;28;20028;-80
2020/12/29 01:51:33;;;;;;;18.40;11.65;;;;;;;6.27;70.48;98183.09;5096355;28;20032;-80
2020/12/29 01:54:00;;;;;;;14.88;10.73;;;;;;;6.14;70.72;98178.38;5096910;28;20128;-81
2020/12/29 01:56:31;;;;;;;13.70;9.48;;;;;;;6.14;70.67;98186.28;5096969;28;20062;-81
2020/12/29 01:58:58;;;;;;;13.93;9.77;;;;;;;6.12;70.48;98182.84;5096684;28;20464;-80
2020/12/29 02:01:24;;;;;;;14.00;8.73;;;;;;;6.12;70.54;98185.47;5097259;28;20082;-81
2020/12/29 02:03:51;;;;;;;16.77;10.40;;;;;;;6.09;70.56;98193.50;5096932;28;20028;-81
2020/12/29 02:06:19;;;;;;;17.02;10.80;;;;;;;6.10;70.49;98189.09;5096608;28;20020;-81
2020/12/29 02:08:47;;;;;;;17.73;10.82;;;;;;;6.09;70.36;98198.78;5097088;28;20032;-81
2020/12/29 02:11:14;;;;;;;18.90;11.25;;;;;;;6.09;70.41;98198.78;5096354;28;20471;-81
2020/12/29 02:13:41;;;;;;;18.48;12.07;;;;;;;6.08;70.33;98198.81;5096987;28;20380;-81
2020/12/29 02:16:07;;;;;;;16.90;11.25;;;;;;;6.06;70.32;98198.88;5096424;28;20016;-81
2020/12/29 02:18:34;;;;;;;16.23;11.70;;;;;;;6.03;70.33;98204.31;5096221;28;20495;-81
2020/12/29 02:21:00;;;;;;;17.17;11.65;;;;;;;6.04;70.38;98205.13;5096488;28;20032;-81
2020/12/29 02:23:27;;;;;;;18.02;12.00;;;;;;;6.03;70.61;98212.19;5096087;28;20028;-81
2020/12/29 02:25:53;;;;;;;18.83;12.77;;;;;;;6.04;70.58;98210.41;5096902;28;20462;-81
2020/12/29 02:28:20;;;;;;;19.40;12.70;;;;;;;6.05;70.57;98212.09;5096120;28;20031;-81
2020/12/29 02:30:46;;;;;;;21.10;14.40;;;;;;;6.06;70.56;98217.28;5096573;28;20028;-81
2020/12/29 02:33:13;;;;;;;21.00;13.30;;;;;;;6.07;70.39;98218.13;5096240;28;20471;-81
2020/12/29 02:35:39;;;;;;;24.23;14.00;;;;;;;6.07;70.94;98216.38;5078519;28;20075;-81
2020/12/29 02:38:06;;;;;;;22.95;15.00;;;;;;;6.09;70.20;98225.06;5096373;28;20106;-81
2020/12/29 02:40:32;;;;;;;26.73;16.17;;;;;;;6.07;70.53;98229.53;5095894;28;20119;-81
2020/12/29 02:42:58;;;;;;;25.98;16.30;;;;;;;6.02;70.41;98231.50;5096656;28;20404;-81
2020/12/29 02:45:25;;;;;;;25.30;15.15;;;;;;;5.96;70.40;98234.34;5096284;28;20028;-81
2020/12/29 02:47:51;;;;;;;21.88;15.05;;;;;;;5.92;70.35;98232.75;5096185;28;20025;-81
2020/12/29 02:50:18;;;;;;;26.63;15.55;;;;;;;5.91;70.15;98234.56;5095805;28;20101;-81
2020/12/29 02:52:44;;;;;;;26.02;16.33;;;;;;;5.89;70.28;98233.75;5095691;28;20029;-81
2020/12/29 02:55:10;;;;;;;26.65;17.02;;;;;;;5.85;70.22;98233.97;5096288;28;20073;-81
2020/12/29 02:57:37;;;;;;;24.45;15.38;;;;;;;5.84;70.46;98235.72;5096019;28;20028;-81
2020/12/29 03:00:05;;;;;;;27.33;16.50;;;;;;;5.87;70.44;98240.88;5095305;28;20456;-81
2020/12/29 03:02:32;;;;;;;23.13;14.40;;;;;;;5.87;70.45;98245.25;5095871;28;20115;-81
2020/12/29 03:05:01;;;;;;;23.80;15.13;;;;;;;5.82;70.55;98248.94;5095704;28;20061;-81
2020/12/29 03:07:28;;;;;;;24.85;15.82;;;;;;;5.79;70.38;98249.06;5096099;28;20058;-81
2020/12/29 03:09:54;;;;;;;24.95;15.75;;;;;;;5.75;70.26;98247.47;5095312;28;20388;-80
2020/12/29 03:12:21;;;;;;;26.98;16.40;;;;;;;5.67;70.27;98252.22;5095457;28;20042;-81
2020/12/29 03:14:47;;;;;;;25.27;16.52;;;;;;;5.60;70.44;98261.25;5095611;28;20379;-81
2020/12/29 03:17:13;;;;;;;27.85;16.70;;;;;;;5.59;70.53;98267.44;5095854;28;20020;-81
2020/12/29 03:19:40;;;;;;;24.90;15.98;;;;;;;5.54;70.38;98258.91;5095431;28;20040;-81
2020/12/29 03:22:06;;;;;;;29.17;17.88;;;;;;;5.49;70.46;98265.16;5095296;28;20035;-81
2020/12/29 03:24:33;;;;;;;28.02;16.80;;;;;;;5.49;70.71;98267.78;5095667;28;20055;-81
2020/12/29 03:26:59;;;;;;;25.52;17.58;;;;;;;5.48;70.51;98275.75;5094734;28;20106;-81
2020/12/29 03:29:26;;;;;;;29.25;18.02;;;;;;;5.49;70.78;98272.19;5094837;28;20455;-81
2020/12/29 03:31:52;;;;;;;28.00;16.95;;;;;;;5.48;70.57;98271.38;5095290;28;20028;-81
2020/12/29 03:34:25;;;;;;;29.23;17.40;;;;;;;5.46;70.78;98273.19;5095144;28;20085;-81
2020/12/29 03:36:52;;;;;;;26.83;16.52;;;;;;;5.42;70.64;98276.88;5095678;28;20036;-81
2020/12/29 03:39:20;;;;;;;25.73;16.45;;;;;;;5.40;70.40;98273.44;5109709;22;20055;-78
2020/12/29 03:41:46;;;;;;;33.20;18.33;;;;;;;5.37;70.57;98278.81;5094978;28;20042;-80
2020/12/29 03:44:13;;;;;;;34.30;18.95;;;;;;;5.38;70.61;98285.75;5095010;28;20027;-79
2020/12/29 03:46:39;;;;;;;32.60;18.33;;;;;;;5.39;70.63;98282.22;5095188;28;20054;-80
2020/12/29 03:49:06;;;;;;;36.17;21.27;;;;;;;5.39;70.40;98284.00;5095535;28;20414;-80
2020/12/29 03:51:32;;;;;;;31.23;17.92;;;;;;;5.40;70.92;98285.72;5094983;28;20055;-80
2020/12/29 03:54:00;;;;;;;31.83;17.95;;;;;;;5.39;70.54;98299.75;5094858;28;20030;-79
2020/12/29 03:56:26;;;;;;;32.25;19.50;;;;;;;5.35;70.43;98292.00;5094893;28;20111;-79
2020/12/29 03:58:53;;;;;;;35.33;18.40;;;;;;;5.34;70.61;98302.56;5094450;28;20081;-77
2020/12/29 04:01:19;;;;;;;33.92;19.23;;;;;;;5.32;70.51;98304.38;5094888;28;20028;-76
2020/12/29 04:03:45;;;;;;;33.38;19.30;;;;;;;5.31;70.67;98305.31;5093850;28;20052;-79
2020/12/29 04:06:13;;;;;;;31.77;18.42;;;;;;;5.28;70.38;98310.69;5094645;28;20363;-79
2020/12/29 04:08:40;;;;;;;29.95;16.95;;;;;;;5.23;70.77;98313.47;5094649;28;20111;-79
2020/12/29 04:11:07;;;;;;;30.77;17.92;;;;;;;5.22;70.35;98313.53;5094763;28;20485;-81
2020/12/29 04:13:33;;;;;;;28.75;17.52;;;;;;;5.21;70.80;98311.81;5094626;28;20032;-79
2020/12/29 04:15:59;;;;;;;32.92;19.63;;;;;;;5.18;70.62;98318.03;5094438;28;20558;-79
2020/12/29 04:18:26;;;;;;;30.05;18.15;;;;;;;5.14;70.61;98319.09;5093987;28;20506;-79
2020/12/29 04:20:52;;;;;;;37.78;21.42;;;;;;;5.12;70.78;98323.53;5094424;28;20498;-79
2020/12/29 04:23:18;;;;;;;38.28;21.10;;;;;;;5.10;70.51;98326.22;5094019;28;20028;-77
2020/12/29 04:25:45;;;;;;;35.40;19.95;;;;;;;5.12;70.37;98332.28;5076202;28;20028;-80
2020/12/29 04:28:11;;;;;;;31.88;18.90;;;;;;;5.13;70.67;98333.13;5093936;28;20054;-78
2020/12/29 04:30:37;;;;;;;35.42;19.50;;;;;;;5.14;70.64;98334.84;5093839;28;20028;-79
2020/12/29 04:33:04;;;;;;;37.28;20.45;;;;;;;5.17;70.88;98339.97;5093987;28;20051;-80
2020/12/29 04:35:30;;;;;;;37.72;20.00;;;;;;;5.13;70.87;98348.88;5094272;28;20067;-78
2020/12/29 04:37:56;;;;;;;37.35;20.17;;;;;;;5.17;71.06;98347.84;5094325;28;20031;-78
2020/12/29 04:40:23;;;;;;;33.80;19.33;;;;;;;5.17;71.02;98345.22;5093503;28;20035;-78
2020/12/29 04:42:50;;;;;;;34.25;19.10;;;;;;;5.16;70.92;98354.88;5093840;28;20123;-78
2020/12/29 04:45:19;;;;;;;31.17;17.08;;;;;;;5.13;71.03;98354.97;5093911;28;20032;-78
2020/12/29 04:47:46;;;;;;;36.70;20.25;;;;;;;5.16;70.68;98354.88;5093594;28;20038;-78
2020/12/29 04:50:14;;;;;;;34.13;19.45;;;;;;;5.19;70.71;98357.34;5093832;28;20059;-78
2020/12/29 04:52:45;;;;;;;35.53;18.27;;;;;;;5.21;71.28;98351.19;5093785;28;20451;-78
2020/12/29 04:55:13;;;;;;;35.67;19.02;;;;;;;5.21;70.86;98356.44;5093632;28;20463;-78
2020/12/29 04:57:45;;;;;;;38.13;19.30;;;;;;;5.26;70.94;98357.13;5094277;28;20090;-78
2020/12/29 05:00:11;;;;;;;33.85;19.10;;;;;;;5.27;71.01;98372.84;5093622;28;20059;-78
2020/12/29 05:02:37;;;;;;;35.75;19.45;;;;;;;5.23;71.04;98365.97;5093713;28;20113;-78
2020/12/29 05:05:04;;;;;;;36.17;19.35;;;;;;;5.23;70.84;98376.47;5093458;28;20020;-78
2020/12/29 05:07:31;;;;;;;37.00;19.23;;;;;;;5.18;71.13;98371.44;5093725;28;20056;-78
2020/12/29 05:10:12;;;;;;;39.33;19.58;;;;;;;5.32;70.78;98375.28;5093729;28;20020;-79
2020/12/29 05:12:53;;;;;;;33.55;17.98;;;;;;;5.31;70.93;98384.09;5093750;28;20051;-79
2020/12/29 05:15:21;;;;;;;31.75;18.63;;;;;;;5.26;71.07;98380.75;5095035;28;20055;-81
2020/12/29 05:17:48;;;;;;;30.20;16.90;;;;;;;5.22;70.90;98384.41;5097526;28;20555;-78
2020/12/29 05:20:14;;;;;;;33.72;18.75;;;;;;;5.26;71.17;98391.25;5097363;28;20038;-78
2020/12/29 05:22:40;;;;;;;32.20;18.23;;;;;;;5.26;71.10;98392.13;5097818;28;20132;-79
2020/12/29 05:25:07;;;;;;;31.75;16.35;;;;;;;5.27;70.82;98392.97;5079589;28;20024;-79
2020/12/29 05:27:38;;;;;;;26.63;15.55;;;;;;;5.28;70.83;98399.94;5097707;28;20020;-78
2020/12/29 05:30:06;;;;;;;26.23;14.98;;;;;;;5.21;70.92;98403.69;5097796;28;20063;-78
2020/12/29 05:32:38;;;;;;;30.33;16.65;;;;;;;5.29;71.04;98406.91;5097495;28;20031;-79
2020/12/29 05:35:19;;;;;;;26.98;16.42;;;;;;;5.30;71.11;98412.09;5097158;28;20089;-78
2020/12/29 05:37:47;;;;;;;32.45;17.88;;;;;;;5.25;71.15;98402.69;5096990;28;20031;-79
2020/12/29 05:40:29;;;;;;;34.33;16.95;;;;;;;5.33;71.13;98412.00;5096469;28;20399;-79
2020/12/29 05:42:57;;;;;;;33.83;16.88;;;;;;;5.29;71.39;98412.16;5097237;28;20039;-79
2020/12/29 05:45:34;;;;;;;36.08;18.05;;;;;;;5.40;70.94;98417.84;5097162;28;20028;-79
2020/12/29 05:48:01;;;;;;;30.50;15.85;;;;;;;5.36;70.97;98413.66;5097433;28;20032;-78
2020/12/29 05:50:29;;;;;;;31.70;16.95;;;;;;;5.40;70.88;98420.50;5097344;28;20060;-79
2020/12/29 05:53:00;;;;;;;31.00;15.82;;;;;;;5.42;71.05;98423.91;5079014;28;20032;-80
2020/12/29 05:55:26;;;;;;;32.20;16.55;;;;;;;5.44;70.96;98429.94;5097029;28;20112;-79
2020/12/29 05:58:10;;;;;;;35.97;19.67;;;;;;;5.56;71.04;98426.00;5096870;28;20119;-78
2020/12/29 06:00:39;;;;;;;35.58;19.70;;;;;;;5.48;71.47;98439.44;5096518;28;20047;-80
2020/12/29 06:03:07;;;;;;;32.10;18.05;;;;;;;5.45;71.29;98439.53;5097042;28;20504;-79
2020/12/29 06:05:34;;;;;;;35.25;18.48;;;;;;;5.48;71.31;98444.69;5096730;28;20039;-80
2020/12/29 06:08:03;;;;;;;38.33;20.63;;;;;;;5.49;71.51;98441.13;5096793;28;20039;-79
2020/12/29 06:10:31;;;;;;;37.42;19.77;;;;;;;5.51;71.39;98449.81;5096844;28;20031;-79
2020/12/29 06:12:59;;;;;;;33.63;18.08;;;;;;;5.53;71.49;98449.75;5097151;28;20058;-79
2020/12/29 06:15:31;;;;;;;37.67;21.10;;;;;;;5.59;71.29;98452.16;5097037;28;20129;-79
2020/12/29 06:18:00;;;;;;;38.95;20.23;;;;;;;5.58;71.64;98444.34;5096854;28;20024;-78
2020/12/29 06:20:53;;;;;;;36.30;19.80;;;;;;;5.69;71.31;98447.41;5096301;28;20498;-78
2020/12/29 06:23:19;;;;;;;;;;;;;;;5.73;71.32;98456.03;5096626;28;20032;-78
2020/12/29 06:25:46;;;;;;;39.95;18.45;;;;;;;5.58;71.55;98457.47;5096771;28;20002;-78
2020/12/29 06:28:17;;;;;;;42.80;21.45;;;;;;;5.45;72.02;98450.06;5095602;28;20031;-79
2020/12/29 06:30:44;;;;;;;37.33;20.30;;;;;;;5.48;71.84;98465.72;5096323;28;20034;-78
2020/12/29 06:33:17;;;;;;;35.17;20.17;;;;;;;5.49;71.68;98462.16;5096521;28;20023;-78
2020/12/29 06:35:45;;;;;;;45.42;21.73;;;;;;;5.43;71.79;98474.66;5096584;28;20031;-78
2020/12/29 06:38:22;;;;;;;43.78;22.35;;;;;;;5.50;71.79;98466.50;5096573;28;20024;-79
2020/12/29 06:40:49;;;;;;;39.00;21.02;;;;;;;5.47;71.53;98484.13;5095846;28;20044;-79
2020/12/29 06:43:16;;;;;;;44.88;21.33;;;;;;;5.45;71.84;98483.34;5096563;28;20032;-78
2020/12/29 06:45:42;;;;;;;45.58;23.30;;;;;;;5.40;71.77;98487.91;5096262;28;20028;-81
2020/12/29 06:48:17;;;;;;;40.55;20.27;;;;;;;5.47;71.99;98495.50;5096034;28;20367;-80
2020/12/29 06:50:43;;;;;;;43.28;22.90;;;;;;;5.41;71.81;98495.72;5096152;28;20038;-79
2020/12/29 06:53:13;;;;;;;50.88;23.88;;;;;;;5.44;71.55;98497.38;5096106;28;20085;-79
2020/12/29 06:55:43;;;;;;;53.30;24.90;;;;;;;5.47;71.76;98500.75;5095848;28;20380;-79
2020/12/29 06:58:12;;;;;;;47.63;22.45;;;;;;;5.48;71.68;98507.72;5096325;28;20062;-79
2020/12/29 07:00:38;;;;;;;46.15;21.60;;;;;;;5.51;71.12;98512.00;5096039;28;20024;-79
2020/12/29 07:03:04;;;;;;;41.05;21.25;;;;;;;5.48;71.69;98513.00;5096016;28;20029;-79
2020/12/29 07:05:36;;;;;;;46.03;23.02;;;;;;;5.51;71.80;98520.75;5095670;28;20024;-81
2020/12/29 07:08:06;;;;;;;48.92;24.17;;;;;;;5.49;71.71;98530.44;5095665;28;20355;-79
2020/12/29 07:13:17;;;;;;;47.70;23.67;;;;;;;5.46;71.73;98541.06;5111963;27;20359;-79
2020/12/29 07:18:30;;;;;;;43.80;21.73;;;;;;;5.45;71.10;98541.97;5091228;28;20153;-79
2020/12/29 07:20:58;;;;;;;44.35;22.42;;;;;;;5.44;71.48;98552.53;5091348;28;20044;-79
2020/12/29 07:23:29;;;;;;;48.45;22.20;;;;;;;5.47;71.07;98562.91;5091001;28;20054;-78
2020/12/29 07:25:58;;;;;;;45.13;23.05;;;;;;;5.42;71.29;98565.72;5090601;28;20467;-81
2020/12/29 07:28:27;;;;;;;44.20;21.27;;;;;;;5.36;70.96;98571.19;5091256;28;20074;-79
2020/12/29 07:30:53;;;;;;;45.90;21.83;;;;;;;5.32;71.08;98565.19;5091010;28;20032;-81
2020/12/29 07:33:23;;;;;;;48.28;22.70;;;;;;;5.34;71.20;98575.63;5091046;28;20039;-79
2020/12/29 07:35:50;;;;;;;46.63;22.73;;;;;;;5.29;71.48;98580.19;5090841;28;20035;-80
2020/12/29 07:40:57;;;;;;;46.55;22.80;;;;;;;5.24;71.47;98592.63;5111955;27;20358;-79
2020/12/29 07:43:23;;;;;;;48.03;23.30;;;;;;;5.23;71.53;98607.50;5111795;28;20031;-77
2020/12/29 07:45:49;;;;;;;47.40;21.85;;;;;;;5.23;71.27;98607.50;5109769;28;20027;-77
2020/12/29 07:48:15;;;;;;;57.13;24.25;;;;;;;5.20;71.20;98605.00;5111430;28;20144;-78
2020/12/29 07:50:41;;;;;;;50.65;24.50;;;;;;;5.15;71.49;98610.41;5111324;28;20043;-78
2020/12/29 07:53:10;;;;;;;45.72;23.88;;;;;;;5.17;71.16;98612.97;5111140;28;20035;-78
2020/12/29 07:55:40;;;;;;;48.83;23.60;;;;;;;5.17;71.66;98613.84;5111309;28;20544;-80
2020/12/29 07:58:08;;;;;;;54.17;24.60;;;;;;;5.14;71.40;98619.19;5110708;28;20502;-78
2020/12/29 08:00:36;;;;;;;54.45;24.38;;;;;;;5.14;71.63;98624.44;5110360;28;20074;-78
2020/12/29 08:03:03;;;;;;;50.22;23.65;;;;;;;5.12;71.45;98623.66;5110717;28;20028;-78
2020/12/29 08:05:32;;;;;;;52.40;23.63;;;;;;;5.14;71.48;98620.97;5111019;28;20028;-78
2020/12/29 08:10:44;;;;;;;52.40;25.15;;;;;;;5.12;71.78;98634.16;5111527;27;20800;-80
2020/12/29 08:13:12;;;;;;;55.95;24.77;;;;;;;5.10;71.85;98638.56;5111739;28;20035;-80
2020/12/29 08:15:41;;;;;;;47.17;23.17;;;;;;;5.08;71.58;98640.38;5111401;28;20034;-79
2020/12/29 08:18:11;;;;;;;45.95;22.98;;;;;;;5.13;71.79;98643.72;5111244;28;20094;-80
2020/12/29 08:20:57;;;;;;;56.30;24.48;;;;;;;5.18;71.94;98647.06;5110895;28;20046;-80
2020/12/29 08:23:27;;;;;;;45.28;22.25;;;;;;;5.15;71.52;98644.53;5110536;28;20032;-79
2020/12/29 08:25:58;;;;;;;53.50;23.77;;;;;;;5.21;72.04;98645.22;5110892;28;20028;-79
2020/12/29 08:28:26;;;;;;;47.90;23.15;;;;;;;5.21;71.60;98653.97;5111244;27;20036;-79
2020/12/29 08:30:54;;;;;;;50.97;21.88;;;;;;;5.24;71.85;98660.91;5110872;28;20028;-79
2020/12/29 08:33:22;;;;;;;47.60;23.52;;;;;;;5.29;71.87;98658.97;5110986;28;20367;-79
2020/12/29 08:35:53;;;;;;;51.90;24.52;;;;;;;5.38;71.78;98663.91;5110881;28;20039;-78
2020/12/29 08:41:28;;;;;;;41.88;22.50;;;;;;;5.45;72.11;98673.28;5111141;27;20363;-79
2020/12/29 08:43:54;;;;;;;48.53;23.97;;;;;;;5.44;71.89;98671.56;5111771;28;20048;-78
2020/12/29 08:46:24;;;;;;;52.75;23.52;;;;;;;5.46;71.79;98672.38;5111781;28;20039;-77
2020/12/29 08:48:56;;;;;;;45.85;22.55;;;;;;;5.51;72.06;98674.88;5111485;28;20054;-83
2020/12/29 08:51:25;;;;;;;50.60;23.85;;;;;;;5.49;71.78;98674.91;5111339;28;20093;-82
2020/12/29 08:53:54;;;;;;;45.28;22.42;;;;;;;5.53;72.02;98682.69;5111099;27;20062;-77
2020/12/29 08:56:25;;;;;;;50.42;24.40;;;;;;;5.59;72.13;98692.97;5110709;28;20475;-77
2020/12/29 08:58:52;;;;;;;45.95;23.63;;;;;;;5.60;72.09;98690.28;5110753;28;20108;-78
2020/12/29 09:01:35;;;;;;;50.97;22.67;;;;;;;5.74;71.73;98697.69;5111224;28;20484;-77
2020/12/29 09:04:21;;;;;;;;;;;;;;;5.89;71.34;98698.09;5111808;28;20061;-78
2020/12/29 09:07:09;;;;;;;41.42;21.30;;;;;;;5.91;71.57;98709.41;5111672;28;19912;-79
2020/12/29 09:12:35;;;;;;;45.38;22.55;;;;;;;5.88;71.82;98704.25;5072305;27;2478596;-80
2020/12/29 09:15:08;;;;;;;45.67;23.50;;;;;;;5.95;71.72;98703.13;5131781;28;20340;-81
2020/12/29 09:17:37;;;;;;;40.65;21.65;;;;;;;5.98;71.95;98705.63;5130318;28;20749;-83
2020/12/29 09:20:26;;;;;;;40.17;20.70;;;;;;;6.14;71.56;98712.09;5121387;27;20035;-79
2020/12/29 09:25:45;;;;;;;38.97;21.50;;;;;;;6.18;71.59;98722.50;5106884;27;20382;-78
2020/12/29 09:31:07;;;;;;;39.25;20.75;;;;;;;6.28;71.70;98743.16;5107970;27;20352;-77
2020/12/29 09:33:34;;;;;;;;;;;;;;;6.47;71.10;98745.13;5092121;28;20841;-78
2020/12/29 09:36:02;;;;;;;38.28;20.25;;;;;;;6.33;71.48;98743.00;5088918;28;19916;-78
2020/12/29 09:38:30;;;;;;;43.70;23.42;;;;;;;6.32;71.61;98741.28;5091403;28;20047;-81
2020/12/29 09:40:57;;;;;;;39.45;21.42;;;;;;;6.32;71.71;98755.28;5084667;28;20518;-79
2020/12/29 09:43:23;;;;;;;44.65;22.42;;;;;;;6.32;71.76;98757.91;5080424;28;20047;-79
2020/12/29 09:45:50;;;;;;;45.67;22.33;;;;;;;6.30;72.13;98764.97;5078970;28;20104;-78
2020/12/29 09:48:17;;;;;;;45.67;22.77;;;;;;;6.37;72.01;98770.91;5092292;28;20036;-78
2020/12/29 09:50:44;;;;;;;40.70;22.95;;;;;;;6.48;71.90;98774.00;5095497;28;20028;-80
2020/12/29 09:53:10;;;;;;;38.08;21.05;;;;;;;6.57;71.85;98777.22;5093027;28;20063;-81
2020/12/29 09:55:38;;;;;;;38.17;20.17;;;;;;;6.72;71.65;98786.31;5078652;28;20046;-79
2020/12/29 09:58:04;;;;;;;45.90;24.95;;;;;;;6.82;71.67;98792.06;5086849;28;20439;-80
2020/12/29 10:00:31;;;;;;;43.35;22.75;;;;;;;6.89;71.76;98794.44;5086694;28;20511;-79
2020/12/29 10:02:58;;;;;;;44.95;23.58;;;;;;;7.01;71.67;98793.09;5085393;28;20128;-80
2020/12/29 10:05:25;;;;;;;42.45;25.02;;;;;;;7.08;71.76;98797.22;5083760;28;20045;-80
2020/12/29 10:07:51;;;;;;;46.90;25.42;;;;;;;7.12;71.93;98797.94;5077154;28;20028;-80
2020/12/29 10:10:17;;;;;;;43.03;25.00;;;;;;;7.31;71.46;98805.97;5078963;28;20041;-79
2020/12/29 10:12:44;;;;;;;45.53;26.17;;;;;;;7.34;71.44;98808.50;5091754;28;20032;-78
2020/12/29 10:15:10;;;;;;;48.92;27.10;;;;;;;7.40;71.80;98804.75;5080359;28;20077;-80
2020/12/29 10:17:36;;;;;;;44.10;25.67;;;;;;;7.47;71.41;98808.03;5080797;28;20493;-79
2020/12/29 10:20:05;;;;;;;47.33;28.00;;;;;;;7.63;71.22;98822.28;5078059;28;20033;-78
2020/12/29 10:22:31;;;;;;;53.40;30.00;;;;;;;7.66;71.37;98816.88;5087050;28;20024;-79
2020/12/29 10:24:57;;;;;;;48.28;27.27;;;;;;;7.73;71.35;98823.63;5094688;28;20174;-78
2020/12/29 10:27:24;;;;;;;45.20;27.45;;;;;;;7.78;71.22;98826.94;5075854;28;20056;-79
2020/12/29 10:29:51;;;;;;;50.47;28.02;;;;;;;7.71;71.65;98830.75;5082972;28;20550;-78
2020/12/29 10:32:20;;;;;;;47.92;27.90;;;;;;;7.78;71.02;98829.56;5085835;28;20028;-79
2020/12/29 10:34:47;;;;;;;46.72;28.88;;;;;;;7.77;70.87;98835.75;5075594;28;20047;-79
2020/12/29 10:37:13;;;;;;;46.97;28.30;;;;;;;7.74;71.14;98838.53;5087589;28;20028;-79
2020/12/29 10:39:39;;;;;;;43.95;28.25;;;;;;;7.85;70.87;98838.09;5084449;28;20024;-81
2020/12/29 10:42:05;;;;;;;42.42;26.63;;;;;;;7.86;71.01;98846.84;5070924;28;20036;-79
2020/12/29 10:44:32;;;;;;;41.35;28.30;;;;;;;7.84;70.81;98839.00;5066808;28;20033;-82
2020/12/29 10:46:58;;;;;;;45.33;28.83;;;;;;;7.94;71.16;98842.97;5062282;28;20086;-77
2020/12/29 10:49:24;;;;;;;38.83;25.92;;;;;;;7.87;71.12;98848.56;5063557;28;20044;-77
2020/12/29 10:51:50;;;;;;;42.78;26.58;;;;;;;7.99;70.41;98850.72;5078407;28;20089;-78
2020/12/29 10:54:16;;;;;;;42.95;25.55;;;;;;;7.80;71.08;98852.38;5067956;28;20060;-80
2020/12/29 10:56:43;;;;;;;40.92;25.92;;;;;;;7.90;70.61;98851.06;5071225;28;20020;-78
2020/12/29 10:59:10;;;;;;;34.38;24.77;;;;;;;7.96;70.54;98845.53;5075632;28;20041;-83
2020/12/29 11:01:36;;;;;;;38.17;24.15;;;;;;;8.08;70.75;98846.81;5069473;28;20510;-79
2020/12/29 11:04:03;;;;;;;36.45;22.33;;;;;;;8.13;70.46;98857.19;5067239;28;20033;-79
2020/12/29 11:06:36;;;;;;;29.33;19.70;;;;;;;8.12;69.86;98866.88;5063568;28;20107;-77
2020/12/29 11:09:04;;;;;;;23.70;15.77;;;;;;;8.04;70.71;98854.00;5066487;28;20029;-82
2020/12/29 11:11:30;;;;;;;26.25;15.70;;;;;;;8.01;70.50;98848.88;5067677;28;20175;-81
2020/12/29 11:13:56;;;;;;;22.25;15.70;;;;;;;8.09;70.10;98851.19;5070668;28;20053;-85
2020/12/29 11:16:22;;;;;;;27.95;15.60;;;;;;;8.15;69.72;98858.84;5071104;28;20087;-83
2020/12/29 11:18:50;;;;;;;21.23;14.85;;;;;;;8.26;69.10;98847.81;5072099;28;20491;-78
2020/12/29 11:21:20;;;;;;;20.60;13.77;;;;;;;8.24;69.72;98861.09;5060491;28;20061;-81
2020/12/29 11:23:47;;;;;;;20.80;13.68;;;;;;;8.26;69.42;98864.53;5077703;28;20051;-79
2020/12/29 11:26:16;;;;;;;17.15;12.48;;;;;;;8.53;69.61;98866.06;5067792;28;20487;-78
2020/12/29 11:28:42;;;;;;;16.88;11.48;;;;;;;8.41;69.82;98862.13;5067169;28;20029;-78
2020/12/29 11:31:13;;;;;;;19.13;12.45;;;;;;;8.66;68.18;98869.03;5070940;28;20059;-79
2020/12/29 11:33:40;;;;;;;14.75;11.25;;;;;;;8.71;67.87;98865.28;5071801;28;20029;-83
2020/12/29 11:36:06;;;;;;;11.90;8.82;;;;;;;8.68;66.24;98870.66;5068162;28;20035;-82
2020/12/29 11:38:33;;;;;;;15.57;10.68;;;;;;;8.74;67.85;98873.03;5068483;28;20024;-81
2020/12/29 11:40:59;;;;;;;16.30;11.07;;;;;;;8.90;67.82;98875.03;5065667;28;20028;-83
2020/12/29 11:43:25;;;;;;;16.67;11.20;;;;;;;9.12;67.74;98874.91;5064150;28;20716;-83
2020/12/29 11:45:51;;;;;;;13.68;10.13;;;;;;;9.09;66.99;98874.19;5067139;28;20025;-83
2020/12/29 11:48:18;;;;;;;17.10;9.63;;;;;;;9.11;66.50;98880.25;5063052;28;20033;-85
2020/12/29 11:50:44;;;;;;;16.25;9.23;;;;;;;8.95;66.75;98883.59;5063931;28;20063;-80
2020/12/29 11:53:10;;;;;;;15.05;11.18;;;;;;;8.88;67.54;98885.66;5069048;28;20028;-83